sensor_id;sensor_type;location;lat;lon;timestamp;P1;durP1;ratioP1;P2;durP2;ratioP2
5878;SDS011;2965;42.640;23.370;2023-01-29T05:02:15;4.43;;;4.13;;
5878;SDS011;2965;42.640;23.370;2023-01-29T05:04:44;5.67;;;5.17;;
5878;SDS011;2965;42.640;23.370;2023-01-29T05:07:12;6.30;;;5.80;;
5878;SDS011;2965;42.640;23.370;2023-01-29T05:09:39;7.30;;;5.00;;
5878;SDS011;2965;42.640;23.370;2023-01-29T05:12:08;3.63;;;3.33;;
5878;SDS011;2965;42.640;23.370;2023-01-29T05:14:38;6.40;;;6.00;;
5878;SDS011;2965;42.640;23.370;2023-01-29T05:17:09;5.70;;;5.20;;
5878;SDS011;2965;42.640;23.370;2023-01-29T05:19:40;7.23;;;4.73;;
5878;SDS011;2965;42.640;23.370;2023-01-29T05:22:05;3.50;;;3.27;;
5878;SDS011;2965;42.640;23.370;2023-01-29T05:24:35;5.20;;;4.53;;
5878;SDS011;2965;42.640;23.370;2023-01-29T05:27:01;4.13;;;3.80;;
5878;SDS011;2965;42.640;23.370;2023-01-29T05:29:45;5.87;;;4.73;;
5878;SDS011;2965;42.640;23.370;2023-01-29T05:32:11;6.40;;;5.27;;
5878;SDS011;2965;42.640;23.370;2023-01-29T05:34:37;5.67;;;5.07;;
5878;SDS011;2965;42.640;23.370;2023-01-29T05:37:03;4.73;;;4.27;;
5878;SDS011;2965;42.640;23.370;2023-01-29T05:39:28;5.43;;;5.00;;
5878;SDS011;2965;42.640;23.370;2023-01-29T05:41:54;4.67;;;4.37;;
5878;SDS011;2965;42.640;23.370;2023-01-29T05:44:19;4.80;;;4.30;;
5878;SDS011;2965;42.640;23.370;2023-01-29T05:46:44;3.40;;;3.23;;
5878;SDS011;2965;42.640;23.370;2023-01-29T05:49:10;8.77;;;5.17;;
5878;SDS011;2965;42.640;23.370;2023-01-29T05:51:36;3.73;;;3.43;;
5878;SDS011;2965;42.640;23.370;2023-01-29T05:54:02;5.30;;;4.93;;
5878;SDS011;2965;42.640;23.370;2023-01-29T05:56:27;5.47;;;4.97;;
5878;SDS011;2965;42.640;23.370;2023-01-29T05:58:53;4.97;;;4.47;;
5878;SDS011;2965;42.640;23.370;2023-01-29T06:01:20;5.90;;;5.50;;
5878;SDS011;2965;42.640;23.370;2023-01-29T06:03:47;6.80;;;5.80;;
5878;SDS011;2965;42.640;23.370;2023-01-29T06:06:12;4.53;;;4.13;;
5878;SDS011;2965;42.640;23.370;2023-01-29T06:08:38;5.30;;;5.00;;
5878;SDS011;2965;42.640;23.370;2023-01-29T06:11:06;5.50;;;5.17;;
5878;SDS011;2965;42.640;23.370;2023-01-29T06:13:33;6.80;;;5.73;;
5878;SDS011;2965;42.640;23.370;2023-01-29T06:15:58;4.47;;;4.17;;
5878;SDS011;2965;42.640;23.370;2023-01-29T06:18:23;7.47;;;4.33;;
5878;SDS011;2965;42.640;23.370;2023-01-29T06:20:49;8.23;;;6.40;;
5878;SDS011;2965;42.640;23.370;2023-01-29T06:23:14;7.03;;;6.23;;
5878;SDS011;2965;42.640;23.370;2023-01-29T06:25:39;5.97;;;5.50;;
5878;SDS011;2965;42.640;23.370;2023-01-29T06:28:05;5.80;;;5.30;;
5878;SDS011;2965;42.640;23.370;2023-01-29T06:30:30;7.43;;;6.77;;
5878;SDS011;2965;42.640;23.370;2023-01-29T06:32:56;6.70;;;6.10;;
5878;SDS011;2965;42.640;23.370;2023-01-29T06:35:22;7.50;;;5.93;;
5878;SDS011;2965;42.640;23.370;2023-01-29T06:37:49;6.90;;;6.13;;
5878;SDS011;2965;42.640;23.370;2023-01-29T06:40:14;6.30;;;5.53;;
5878;SDS011;2965;42.640;23.370;2023-01-29T06:42:40;6.17;;;5.57;;
5878;SDS011;2965;42.640;23.370;2023-01-29T06:45:05;8.80;;;6.40;;
5878;SDS011;2965;42.640;23.370;2023-01-29T06:47:31;5.77;;;4.13;;
5878;SDS011;2965;42.640;23.370;2023-01-29T06:49:56;5.60;;;5.10;;
5878;SDS011;2965;42.640;23.370;2023-01-29T06:52:22;7.80;;;6.53;;
5878;SDS011;2965;42.640;23.370;2023-01-29T06:54:49;10.70;;;8.20;;
5878;SDS011;2965;42.640;23.370;2023-01-29T06:57:14;10.37;;;6.83;;
5878;SDS011;2965;42.640;23.370;2023-01-29T06:59:40;7.00;;;6.23;;
5878;SDS011;2965;42.640;23.370;2023-01-29T07:02:05;8.33;;;6.97;;
5878;SDS011;2965;42.640;23.370;2023-01-29T07:04:30;10.40;;;5.70;;
5878;SDS011;2965;42.640;23.370;2023-01-29T07:06:57;9.47;;;7.83;;
5878;SDS011;2965;42.640;23.370;2023-01-29T07:09:23;7.40;;;6.60;;
5878;SDS011;2965;42.640;23.370;2023-01-29T07:11:49;9.13;;;4.80;;
5878;SDS011;2965;42.640;23.370;2023-01-29T07:14:14;9.03;;;6.50;;
5878;SDS011;2965;42.640;23.370;2023-01-29T07:16:40;8.27;;;7.13;;
5878;SDS011;2965;42.640;23.370;2023-01-29T07:19:05;9.80;;;7.80;;
5878;SDS011;2965;42.640;23.370;2023-01-29T07:21:30;8.97;;;8.07;;
5878;SDS011;2965;42.640;23.370;2023-01-29T07:23:56;8.10;;;6.17;;
5878;SDS011;2965;42.640;23.370;2023-01-29T07:26:21;5.20;;;4.87;;
5878;SDS011;2965;42.640;23.370;2023-01-29T07:28:46;10.27;;;6.93;;
5878;SDS011;2965;42.640;23.370;2023-01-29T07:31:12;9.37;;;5.93;;
5878;SDS011;2965;42.640;23.370;2023-01-29T07:33:39;5.30;;;4.43;;
5878;SDS011;2965;42.640;23.370;2023-01-29T07:36:08;9.43;;;7.10;;
5878;SDS011;2965;42.640;23.370;2023-01-29T07:38:34;6.97;;;6.27;;
5878;SDS011;2965;42.640;23.370;2023-01-29T07:40:59;15.20;;;9.03;;
5878;SDS011;2965;42.640;23.370;2023-01-29T07:43:25;15.97;;;8.97;;
5878;SDS011;2965;42.640;23.370;2023-01-29T07:45:50;12.53;;;8.60;;
5878;SDS011;2965;42.640;23.370;2023-01-29T07:48:16;10.97;;;7.13;;
5878;SDS011;2965;42.640;23.370;2023-01-29T07:50:42;5.60;;;4.60;;
5878;SDS011;2965;42.640;23.370;2023-01-29T07:53:11;11.43;;;7.43;;
5878;SDS011;2965;42.640;23.370;2023-01-29T07:55:39;13.33;;;9.70;;
5878;SDS011;2965;42.640;23.370;2023-01-29T07:58:07;17.00;;;11.10;;
5878;SDS011;2965;42.640;23.370;2023-01-29T08:00:33;10.77;;;8.37;;
5878;SDS011;2965;42.640;23.370;2023-01-29T08:03:05;11.40;;;8.00;;
5878;SDS011;2965;42.640;23.370;2023-01-29T08:05:33;13.83;;;10.27;;
5878;SDS011;2965;42.640;23.370;2023-01-29T08:07:58;7.80;;;4.57;;
5878;SDS011;2965;42.640;23.370;2023-01-29T08:10:24;6.63;;;5.50;;
5878;SDS011;2965;42.640;23.370;2023-01-29T08:12:53;4.23;;;4.03;;
5878;SDS011;2965;42.640;23.370;2023-01-29T08:15:23;15.00;;;8.50;;
5878;SDS011;2965;42.640;23.370;2023-01-29T08:17:48;13.40;;;8.90;;
5878;SDS011;2965;42.640;23.370;2023-01-29T08:20:15;12.27;;;10.50;;
5878;SDS011;2965;42.640;23.370;2023-01-29T08:22:41;16.90;;;11.20;;
5878;SDS011;2965;42.640;23.370;2023-01-29T08:25:06;21.53;;;8.83;;
5878;SDS011;2965;42.640;23.370;2023-01-29T08:27:32;14.43;;;8.43;;
5878;SDS011;2965;42.640;23.370;2023-01-29T08:29:57;16.43;;;10.93;;
5878;SDS011;2965;42.640;23.370;2023-01-29T08:32:23;17.03;;;10.77;;
5878;SDS011;2965;42.640;23.370;2023-01-29T08:34:48;11.27;;;8.90;;
5878;SDS011;2965;42.640;23.370;2023-01-29T08:37:13;29.27;;;13.50;;
5878;SDS011;2965;42.640;23.370;2023-01-29T08:39:39;10.27;;;7.40;;
5878;SDS011;2965;42.640;23.370;2023-01-29T08:42:04;11.67;;;7.90;;
5878;SDS011;2965;42.640;23.370;2023-01-29T08:44:30;14.97;;;9.10;;
5878;SDS011;2965;42.640;23.370;2023-01-29T08:46:55;11.23;;;8.57;;
5878;SDS011;2965;42.640;23.370;2023-01-29T08:49:20;11.50;;;6.67;;
5878;SDS011;2965;42.640;23.370;2023-01-29T08:51:46;8.50;;;5.17;;
5878;SDS011;2965;42.640;23.370;2023-01-29T08:54:11;7.40;;;6.70;;
5878;SDS011;2965;42.640;23.370;2023-01-29T08:56:36;11.70;;;8.43;;
5878;SDS011;2965;42.640;23.370;2023-01-29T08:59:02;14.90;;;9.37;;
5878;SDS011;2965;42.640;23.370;2023-01-29T09:01:27;20.53;;;10.10;;
5878;SDS011;2965;42.640;23.370;2023-01-29T09:03:52;16.47;;;8.50;;
5878;SDS011;2965;42.640;23.370;2023-01-29T09:06:18;12.63;;;8.93;;
5878;SDS011;2965;42.640;23.370;2023-01-29T09:08:43;9.57;;;7.20;;
5878;SDS011;2965;42.640;23.370;2023-01-29T09:11:09;11.77;;;9.10;;
5878;SDS011;2965;42.640;23.370;2023-01-29T09:13:35;15.90;;;9.70;;
5878;SDS011;2965;42.640;23.370;2023-01-29T09:16:01;18.30;;;10.40;;
5878;SDS011;2965;42.640;23.370;2023-01-29T09:18:28;9.57;;;7.90;;
5878;SDS011;2965;42.640;23.370;2023-01-29T09:20:54;14.40;;;10.03;;
5878;SDS011;2965;42.640;23.370;2023-01-29T09:23:20;11.73;;;8.20;;
5878;SDS011;2965;42.640;23.370;2023-01-29T09:25:45;11.37;;;8.00;;
5878;SDS011;2965;42.640;23.370;2023-01-29T09:28:11;7.90;;;6.00;;
5878;SDS011;2965;42.640;23.370;2023-01-29T09:30:37;10.13;;;7.53;;
5878;SDS011;2965;42.640;23.370;2023-01-29T09:33:03;15.87;;;10.37;;
5878;SDS011;2965;42.640;23.370;2023-01-29T09:35:30;12.67;;;9.30;;
5878;SDS011;2965;42.640;23.370;2023-01-29T09:37:55;17.07;;;9.90;;
5878;SDS011;2965;42.640;23.370;2023-01-29T09:43:18;18.30;;;8.60;;
5878;SDS011;2965;42.640;23.370;2023-01-29T09:45:57;15.20;;;8.23;;
5878;SDS011;2965;42.640;23.370;2023-01-29T09:48:31;8.30;;;6.87;;
5878;SDS011;2965;42.640;23.370;2023-01-29T09:51:01;8.30;;;7.53;;
5878;SDS011;2965;42.640;23.370;2023-01-29T09:53:34;8.87;;;7.83;;
5878;SDS011;2965;42.640;23.370;2023-01-29T09:56:15;13.20;;;9.27;;
5878;SDS011;2965;42.640;23.370;2023-01-29T09:58:44;13.77;;;7.73;;
5878;SDS011;2965;42.640;23.370;2023-01-29T10:01:18;14.80;;;10.43;;
5878;SDS011;2965;42.640;23.370;2023-01-29T10:07:00;9.63;;;7.73;;
5878;SDS011;2965;42.640;23.370;2023-01-29T10:23:49;9.90;;;6.77;;
5878;SDS011;2965;42.640;23.370;2023-01-29T10:26:16;18.67;;;10.17;;
5878;SDS011;2965;42.640;23.370;2023-01-29T10:28:47;16.07;;;10.63;;
5878;SDS011;2965;42.640;23.370;2023-01-29T10:31:25;24.47;;;12.63;;
5878;SDS011;2965;42.640;23.370;2023-01-29T10:34:00;17.40;;;10.47;;
5878;SDS011;2965;42.640;23.370;2023-01-29T10:39:21;15.63;;;9.07;;
5878;SDS011;2965;42.640;23.370;2023-01-29T10:50:51;16.90;;;10.00;;
5878;SDS011;2965;42.640;23.370;2023-01-29T11:02:00;21.03;;;9.90;;
5878;SDS011;2965;42.640;23.370;2023-01-29T11:04:27;20.33;;;12.03;;
5878;SDS011;2965;42.640;23.370;2023-01-29T11:06:54;20.03;;;11.70;;
5878;SDS011;2965;42.640;23.370;2023-01-29T11:12:08;13.10;;;9.47;;
5878;SDS011;2965;42.640;23.370;2023-01-29T11:14:45;14.63;;;9.10;;
5878;SDS011;2965;42.640;23.370;2023-01-29T11:17:20;18.93;;;10.33;;
5878;SDS011;2965;42.640;23.370;2023-01-29T11:19:47;21.40;;;11.27;;
5878;SDS011;2965;42.640;23.370;2023-01-29T11:24:45;16.13;;;10.13;;
5878;SDS011;2965;42.640;23.370;2023-01-29T11:27:15;17.17;;;11.80;;
5878;SDS011;2965;42.640;23.370;2023-01-29T11:29:47;32.23;;;12.50;;
5878;SDS011;2965;42.640;23.370;2023-01-29T11:34:55;18.83;;;9.90;;
5878;SDS011;2965;42.640;23.370;2023-01-29T11:37:36;22.13;;;13.33;;
5878;SDS011;2965;42.640;23.370;2023-01-29T11:42:44;23.40;;;12.07;;
5878;SDS011;2965;42.640;23.370;2023-01-29T11:45:26;20.83;;;11.57;;
5878;SDS011;2965;42.640;23.370;2023-01-29T11:47:57;21.40;;;12.17;;
5878;SDS011;2965;42.640;23.370;2023-01-29T11:50:24;19.27;;;9.87;;
5878;SDS011;2965;42.640;23.370;2023-01-29T11:52:51;13.07;;;8.43;;
5878;SDS011;2965;42.640;23.370;2023-01-29T11:55:19;25.47;;;13.73;;
5878;SDS011;2965;42.640;23.370;2023-01-29T11:57:47;17.03;;;9.47;;
5878;SDS011;2965;42.640;23.370;2023-01-29T12:00:19;27.73;;;13.70;;
5878;SDS011;2965;42.640;23.370;2023-01-29T12:02:48;34.10;;;7.10;;
5878;SDS011;2965;42.640;23.370;2023-01-29T12:05:28;10.70;;;6.77;;
5878;SDS011;2965;42.640;23.370;2023-01-29T12:07:57;21.17;;;8.80;;
5878;SDS011;2965;42.640;23.370;2023-01-29T12:15:37;18.03;;;9.37;;
5878;SDS011;2965;42.640;23.370;2023-01-29T12:18:06;21.00;;;12.47;;
5878;SDS011;2965;42.640;23.370;2023-01-29T12:20:43;12.37;;;7.20;;
5878;SDS011;2965;42.640;23.370;2023-01-29T12:23:30;22.77;;;12.07;;
5878;SDS011;2965;42.640;23.370;2023-01-29T12:26:04;15.23;;;8.00;;
5878;SDS011;2965;42.640;23.370;2023-01-29T12:31:07;18.50;;;10.03;;
5878;SDS011;2965;42.640;23.370;2023-01-29T12:33:54;27.93;;;13.67;;
5878;SDS011;2965;42.640;23.370;2023-01-29T12:36:40;17.67;;;11.67;;
5878;SDS011;2965;42.640;23.370;2023-01-29T12:39:17;17.87;;;10.40;;
5878;SDS011;2965;42.640;23.370;2023-01-29T12:47:13;16.60;;;10.63;;
5878;SDS011;2965;42.640;23.370;2023-01-29T12:49:46;19.03;;;8.97;;
5878;SDS011;2965;42.640;23.370;2023-01-29T12:52:21;22.13;;;12.40;;
5878;SDS011;2965;42.640;23.370;2023-01-29T12:55:24;21.20;;;12.70;;
5878;SDS011;2965;42.640;23.370;2023-01-29T13:00:35;14.93;;;9.40;;
5878;SDS011;2965;42.640;23.370;2023-01-29T13:08:56;18.60;;;12.60;;
5878;SDS011;2965;42.640;23.370;2023-01-29T13:11:25;20.70;;;12.40;;
5878;SDS011;2965;42.640;23.370;2023-01-29T13:16:44;18.50;;;12.50;;
5878;SDS011;2965;42.640;23.370;2023-01-29T13:19:20;18.23;;;11.20;;
5878;SDS011;2965;42.640;23.370;2023-01-29T13:21:58;13.87;;;9.77;;
5878;SDS011;2965;42.640;23.370;2023-01-29T13:24:37;16.27;;;10.93;;
5878;SDS011;2965;42.640;23.370;2023-01-29T13:27:04;12.07;;;8.53;;
5878;SDS011;2965;42.640;23.370;2023-01-29T13:29:30;18.10;;;12.20;;
5878;SDS011;2965;42.640;23.370;2023-01-29T13:31:57;17.80;;;11.57;;
5878;SDS011;2965;42.640;23.370;2023-01-29T13:34:27;21.57;;;12.30;;
5878;SDS011;2965;42.640;23.370;2023-01-29T13:37:02;11.00;;;7.10;;
5878;SDS011;2965;42.640;23.370;2023-01-29T13:39:38;19.83;;;11.40;;
5878;SDS011;2965;42.640;23.370;2023-01-29T13:42:17;21.47;;;11.10;;
5878;SDS011;2965;42.640;23.370;2023-01-29T13:44:51;21.00;;;12.83;;
5878;SDS011;2965;42.640;23.370;2023-01-29T14:10:23;18.57;;;11.60;;
5878;SDS011;2965;42.640;23.370;2023-01-29T14:12:50;11.47;;;8.90;;
5878;SDS011;2965;42.640;23.370;2023-01-29T14:15:24;20.50;;;10.73;;
5878;SDS011;2965;42.640;23.370;2023-01-29T14:17:53;22.77;;;13.47;;
5878;SDS011;2965;42.640;23.370;2023-01-29T14:20:22;20.60;;;11.83;;
5878;SDS011;2965;42.640;23.370;2023-01-29T14:22:52;17.67;;;10.00;;
5878;SDS011;2965;42.640;23.370;2023-01-29T14:25:22;13.10;;;10.10;;
5878;SDS011;2965;42.640;23.370;2023-01-29T14:27:53;18.10;;;10.73;;
5878;SDS011;2965;42.640;23.370;2023-01-29T14:30:19;26.30;;;10.73;;
5878;SDS011;2965;42.640;23.370;2023-01-29T14:32:47;14.87;;;6.97;;
5878;SDS011;2965;42.640;23.370;2023-01-29T14:35:17;18.00;;;11.53;;
5878;SDS011;2965;42.640;23.370;2023-01-29T14:37:45;20.43;;;11.80;;
5878;SDS011;2965;42.640;23.370;2023-01-29T14:40:29;20.63;;;11.20;;
5878;SDS011;2965;42.640;23.370;2023-01-29T14:45:44;22.63;;;13.40;;
5878;SDS011;2965;42.640;23.370;2023-01-29T14:58:36;30.43;;;15.03;;
5878;SDS011;2965;42.640;23.370;2023-01-29T15:01:10;34.43;;;16.17;;
5878;SDS011;2965;42.640;23.370;2023-01-29T15:04:03;21.50;;;13.30;;
5878;SDS011;2965;42.640;23.370;2023-01-29T15:07:00;32.30;;;16.47;;
5878;SDS011;2965;42.640;23.370;2023-01-29T15:14:51;25.40;;;13.47;;
5878;SDS011;2965;42.640;23.370;2023-01-29T15:17:40;28.07;;;13.20;;
5878;SDS011;2965;42.640;23.370;2023-01-29T15:20:26;26.30;;;12.17;;
5878;SDS011;2965;42.640;23.370;2023-01-29T15:22:56;31.17;;;13.40;;
5878;SDS011;2965;42.640;23.370;2023-01-29T15:25:22;31.70;;;15.57;;
5878;SDS011;2965;42.640;23.370;2023-01-29T15:27:48;33.07;;;14.53;;
5878;SDS011;2965;42.640;23.370;2023-01-29T15:30:15;27.23;;;13.60;;
5878;SDS011;2965;42.640;23.370;2023-01-29T15:32:43;26.87;;;11.73;;
5878;SDS011;2965;42.640;23.370;2023-01-29T15:35:10;22.77;;;12.70;;
5878;SDS011;2965;42.640;23.370;2023-01-29T15:37:41;17.50;;;10.07;;
5878;SDS011;2965;42.640;23.370;2023-01-29T15:40:11;32.90;;;14.73;;
5878;SDS011;2965;42.640;23.370;2023-01-29T15:42:43;26.17;;;13.20;;
5878;SDS011;2965;42.640;23.370;2023-01-29T15:45:22;23.23;;;13.57;;
5878;SDS011;2965;42.640;23.370;2023-01-29T15:48:00;31.53;;;14.97;;
5878;SDS011;2965;42.640;23.370;2023-01-29T15:50:40;24.47;;;11.77;;
5878;SDS011;2965;42.640;23.370;2023-01-29T15:53:08;22.03;;;11.90;;
5878;SDS011;2965;42.640;23.370;2023-01-29T15:55:45;35.13;;;16.53;;
5878;SDS011;2965;42.640;23.370;2023-01-29T15:58:18;15.60;;;9.43;;
5878;SDS011;2965;42.640;23.370;2023-01-29T16:00:48;30.13;;;12.30;;
5878;SDS011;2965;42.640;23.370;2023-01-29T16:03:20;21.73;;;14.00;;
5878;SDS011;2965;42.640;23.370;2023-01-29T16:05:47;35.00;;;16.20;;
5878;SDS011;2965;42.640;23.370;2023-01-29T16:08:14;19.47;;;11.23;;
5878;SDS011;2965;42.640;23.370;2023-01-29T16:10:40;33.33;;;15.70;;
5878;SDS011;2965;42.640;23.370;2023-01-29T16:13:49;26.40;;;13.40;;
5878;SDS011;2965;42.640;23.370;2023-01-29T16:18:42;30.77;;;16.23;;
5878;SDS011;2965;42.640;23.370;2023-01-29T16:21:14;34.50;;;17.43;;
5878;SDS011;2965;42.640;23.370;2023-01-29T16:23:48;26.53;;;13.90;;
5878;SDS011;2965;42.640;23.370;2023-01-29T16:26:26;37.90;;;17.53;;
5878;SDS011;2965;42.640;23.370;2023-01-29T16:28:55;28.20;;;14.00;;
5878;SDS011;2965;42.640;23.370;2023-01-29T16:31:25;43.70;;;17.17;;
5878;SDS011;2965;42.640;23.370;2023-01-29T16:33:53;37.70;;;17.10;;
5878;SDS011;2965;42.640;23.370;2023-01-29T16:36:22;37.43;;;17.33;;
5878;SDS011;2965;42.640;23.370;2023-01-29T16:38:54;37.30;;;16.30;;
5878;SDS011;2965;42.640;23.370;2023-01-29T16:46:33;31.73;;;15.40;;
5878;SDS011;2965;42.640;23.370;2023-01-29T16:51:55;34.40;;;14.97;;
5878;SDS011;2965;42.640;23.370;2023-01-29T16:54:23;33.67;;;17.20;;
5878;SDS011;2965;42.640;23.370;2023-01-29T16:56:58;33.23;;;17.10;;
5878;SDS011;2965;42.640;23.370;2023-01-29T16:59:35;29.40;;;14.67;;
5878;SDS011;2965;42.640;23.370;2023-01-29T17:02:03;29.03;;;13.90;;
5878;SDS011;2965;42.640;23.370;2023-01-29T17:04:45;29.70;;;13.90;;
5878;SDS011;2965;42.640;23.370;2023-01-29T17:07:14;33.83;;;15.30;;
5878;SDS011;2965;42.640;23.370;2023-01-29T17:09:46;24.90;;;13.23;;
5878;SDS011;2965;42.640;23.370;2023-01-29T17:12:17;19.63;;;10.60;;
5878;SDS011;2965;42.640;23.370;2023-01-29T17:14:55;28.70;;;14.27;;
5878;SDS011;2965;42.640;23.370;2023-01-29T17:17:32;22.63;;;11.83;;
5878;SDS011;2965;42.640;23.370;2023-01-29T17:20:14;22.87;;;13.50;;
5878;SDS011;2965;42.640;23.370;2023-01-29T17:22:40;31.93;;;14.80;;
5878;SDS011;2965;42.640;23.370;2023-01-29T17:25:06;30.00;;;15.13;;
5878;SDS011;2965;42.640;23.370;2023-01-29T17:27:31;30.83;;;15.23;;
5878;SDS011;2965;42.640;23.370;2023-01-29T17:29:57;23.93;;;12.87;;
5878;SDS011;2965;42.640;23.370;2023-01-29T17:32:23;27.87;;;14.23;;
5878;SDS011;2965;42.640;23.370;2023-01-29T17:34:49;29.67;;;15.10;;
5878;SDS011;2965;42.640;23.370;2023-01-29T17:37:15;26.63;;;15.00;;
5878;SDS011;2965;42.640;23.370;2023-01-29T18:37:20;29.73;;;14.43;;
5878;SDS011;2965;42.640;23.370;2023-01-29T18:39:46;37.40;;;16.20;;
5878;SDS011;2965;42.640;23.370;2023-01-29T18:42:11;29.40;;;13.67;;
5878;SDS011;2965;42.640;23.370;2023-01-29T18:44:37;41.03;;;18.70;;
5878;SDS011;2965;42.640;23.370;2023-01-29T18:47:02;30.90;;;15.10;;
5878;SDS011;2965;42.640;23.370;2023-01-29T18:49:29;28.03;;;13.10;;
5878;SDS011;2965;42.640;23.370;2023-01-29T18:54:30;29.17;;;15.60;;
5878;SDS011;2965;42.640;23.370;2023-01-29T18:56:55;28.37;;;13.70;;
5878;SDS011;2965;42.640;23.370;2023-01-29T18:59:21;39.63;;;17.73;;
5878;SDS011;2965;42.640;23.370;2023-01-29T19:01:46;29.40;;;15.00;;
5878;SDS011;2965;42.640;23.370;2023-01-29T19:04:12;53.90;;;25.83;;
5878;SDS011;2965;42.640;23.370;2023-01-29T19:06:37;29.37;;;15.70;;
5878;SDS011;2965;42.640;23.370;2023-01-29T19:09:03;30.40;;;15.17;;
5878;SDS011;2965;42.640;23.370;2023-01-29T19:11:28;29.23;;;13.60;;
5878;SDS011;2965;42.640;23.370;2023-01-29T19:13:54;46.10;;;15.13;;
5878;SDS011;2965;42.640;23.370;2023-01-29T19:16:19;34.00;;;15.80;;
5878;SDS011;2965;42.640;23.370;2023-01-29T19:18:45;34.83;;;17.53;;
5878;SDS011;2965;42.640;23.370;2023-01-29T19:21:11;34.33;;;16.20;;
5878;SDS011;2965;42.640;23.370;2023-01-29T19:23:38;25.47;;;13.70;;
5878;SDS011;2965;42.640;23.370;2023-01-29T19:26:04;34.13;;;16.50;;
5878;SDS011;2965;42.640;23.370;2023-01-29T19:28:30;32.53;;;15.57;;
5878;SDS011;2965;42.640;23.370;2023-01-29T19:30:56;28.37;;;14.83;;
5878;SDS011;2965;42.640;23.370;2023-01-29T19:33:22;31.30;;;16.67;;
5878;SDS011;2965;42.640;23.370;2023-01-29T19:35:47;41.10;;;19.80;;
5878;SDS011;2965;42.640;23.370;2023-01-29T19:38:13;20.00;;;11.30;;
5878;SDS011;2965;42.640;23.370;2023-01-29T19:40:43;40.83;;;15.23;;
5878;SDS011;2965;42.640;23.370;2023-01-29T19:43:09;32.27;;;16.57;;
5878;SDS011;2965;42.640;23.370;2023-01-29T19:45:34;42.37;;;16.87;;
5878;SDS011;2965;42.640;23.370;2023-01-29T19:48:00;28.10;;;13.60;;
5878;SDS011;2965;42.640;23.370;2023-01-29T19:50:25;29.20;;;16.10;;
5878;SDS011;2965;42.640;23.370;2023-01-29T19:52:51;34.60;;;14.20;;
5878;SDS011;2965;42.640;23.370;2023-01-29T19:55:17;32.57;;;14.60;;
5878;SDS011;2965;42.640;23.370;2023-01-29T19:57:44;31.07;;;15.03;;
5878;SDS011;2965;42.640;23.370;2023-01-29T20:00:10;37.30;;;16.77;;
5878;SDS011;2965;42.640;23.370;2023-01-29T20:02:36;34.10;;;13.77;;
5878;SDS011;2965;42.640;23.370;2023-01-29T20:05:02;34.40;;;14.27;;
5878;SDS011;2965;42.640;23.370;2023-01-29T20:07:29;26.43;;;12.77;;
5878;SDS011;2965;42.640;23.370;2023-01-29T20:09:55;20.20;;;10.93;;
5878;SDS011;2965;42.640;23.370;2023-01-29T20:12:20;28.10;;;14.00;;
5878;SDS011;2965;42.640;23.370;2023-01-29T20:14:45;34.97;;;15.13;;
5878;SDS011;2965;42.640;23.370;2023-01-29T20:17:16;34.13;;;14.20;;
5878;SDS011;2965;42.640;23.370;2023-01-29T20:19:42;38.77;;;15.43;;
5878;SDS011;2965;42.640;23.370;2023-01-29T20:22:08;39.97;;;15.30;;
5878;SDS011;2965;42.640;23.370;2023-01-29T20:24:34;36.27;;;15.63;;
5878;SDS011;2965;42.640;23.370;2023-01-29T20:27:03;35.40;;;16.47;;
5878;SDS011;2965;42.640;23.370;2023-01-29T20:29:30;33.33;;;16.17;;
5878;SDS011;2965;42.640;23.370;2023-01-29T20:31:55;27.30;;;13.40;;
5878;SDS011;2965;42.640;23.370;2023-01-29T20:34:21;19.00;;;10.37;;
5878;SDS011;2965;42.640;23.370;2023-01-29T20:36:48;42.10;;;17.93;;
5878;SDS011;2965;42.640;23.370;2023-01-29T20:39:13;33.67;;;15.90;;
5878;SDS011;2965;42.640;23.370;2023-01-29T20:41:39;26.97;;;11.77;;
5878;SDS011;2965;42.640;23.370;2023-01-29T20:44:05;39.57;;;15.97;;
5878;SDS011;2965;42.640;23.370;2023-01-29T20:46:31;39.63;;;17.20;;
5878;SDS011;2965;42.640;23.370;2023-01-29T20:48:59;32.53;;;13.43;;
5878;SDS011;2965;42.640;23.370;2023-01-29T20:51:24;29.40;;;13.80;;
5878;SDS011;2965;42.640;23.370;2023-01-29T20:53:49;33.37;;;16.50;;
5878;SDS011;2965;42.640;23.370;2023-01-29T20:56:15;33.93;;;14.47;;
5878;SDS011;2965;42.640;23.370;2023-01-29T20:58:41;17.20;;;10.87;;
5878;SDS011;2965;42.640;23.370;2023-01-29T21:01:10;17.67;;;10.27;;
5878;SDS011;2965;42.640;23.370;2023-01-29T21:03:38;20.50;;;9.70;;
5878;SDS011;2965;42.640;23.370;2023-01-29T21:06:03;28.43;;;12.00;;
5878;SDS011;2965;42.640;23.370;2023-01-29T21:08:29;27.23;;;12.90;;
5878;SDS011;2965;42.640;23.370;2023-01-29T21:10:55;27.43;;;12.30;;
5878;SDS011;2965;42.640;23.370;2023-01-29T21:13:20;27.50;;;12.30;;
5878;SDS011;2965;42.640;23.370;2023-01-29T21:15:46;22.63;;;9.73;;
5878;SDS011;2965;42.640;23.370;2023-01-29T21:18:13;17.90;;;10.50;;
5878;SDS011;2965;42.640;23.370;2023-01-29T21:20:39;29.80;;;11.13;;
5878;SDS011;2965;42.640;23.370;2023-01-29T21:23:04;23.40;;;11.20;;
5878;SDS011;2965;42.640;23.370;2023-01-29T21:25:30;43.27;;;13.73;;
5878;SDS011;2965;42.640;23.370;2023-01-29T21:27:55;25.50;;;11.87;;
5878;SDS011;2965;42.640;23.370;2023-01-29T21:30:21;19.50;;;8.77;;
5878;SDS011;2965;42.640;23.370;2023-01-29T21:32:47;19.70;;;9.70;;
5878;SDS011;2965;42.640;23.370;2023-01-29T21:35:12;21.73;;;9.57;;
5878;SDS011;2965;42.640;23.370;2023-01-29T21:37:38;19.60;;;10.80;;
5878;SDS011;2965;42.640;23.370;2023-01-29T21:40:05;14.23;;;7.00;;
5878;SDS011;2965;42.640;23.370;2023-01-29T21:42:31;27.07;;;12.00;;
5878;SDS011;2965;42.640;23.370;2023-01-29T21:45:15;14.80;;;5.33;;
5878;SDS011;2965;42.640;23.370;2023-01-29T21:47:41;16.57;;;9.20;;
5878;SDS011;2965;42.640;23.370;2023-01-29T21:50:07;15.03;;;5.70;;
5878;SDS011;2965;42.640;23.370;2023-01-29T21:52:32;17.50;;;9.27;;
5878;SDS011;2965;42.640;23.370;2023-01-29T21:54:58;16.50;;;8.90;;
5878;SDS011;2965;42.640;23.370;2023-01-29T21:57:23;12.07;;;7.23;;
5878;SDS011;2965;42.640;23.370;2023-01-29T21:59:50;15.30;;;8.93;;
